sensor_id;sensor_type;location;lat;lon;timestamp;P1;durP1;ratioP1;P2;durP2;ratioP2
31126;SDS011;17775;57.948;12.514;2023-06-19T00:01:02;18.63;;;11.15;;
31126;SDS011;17775;57.948;12.514;2023-06-19T00:03:29;16.05;;;11.35;;
31126;SDS011;17775;57.948;12.514;2023-06-19T00:05:55;15.88;;;11.02;;
31126;SDS011;17775;57.948;12.514;2023-06-19T00:08:22;14.93;;;11.45;;
31126;SDS011;17775;57.948;12.514;2023-06-19T00:10:48;16.25;;;11.50;;
31126;SDS011;17775;57.948;12.514;2023-06-19T00:13:15;15.52;;;10.55;;
31126;SDS011;17775;57.948;12.514;2023-06-19T00:15:41;18.25;;;9.57;;
31126;SDS011;17775;57.948;12.514;2023-06-19T00:18:08;13.48;;;10.63;;
31126;SDS011;17775;57.948;12.514;2023-06-19T00:20:36;14.70;;;9.40;;
31126;SDS011;17775;57.948;12.514;2023-06-19T00:23:02;14.50;;;10.45;;
31126;SDS011;17775;57.948;12.514;2023-06-19T00:25:29;14.77;;;10.18;;
31126;SDS011;17775;57.948;12.514;2023-06-19T00:27:55;12.93;;;10.30;;
31126;SDS011;17775;57.948;12.514;2023-06-19T00:30:22;14.82;;;10.85;;
31126;SDS011;17775;57.948;12.514;2023-06-19T00:32:52;14.32;;;10.20;;
31126;SDS011;17775;57.948;12.514;2023-06-19T00:35:19;24.00;;;11.20;;
31126;SDS011;17775;57.948;12.514;2023-06-19T00:37:48;12.50;;;9.80;;
31126;SDS011;17775;57.948;12.514;2023-06-19T00:40:48;14.48;;;10.65;;
31126;SDS011;17775;57.948;12.514;2023-06-19T00:43:07;13.27;;;9.70;;
31126;SDS011;17775;57.948;12.514;2023-06-19T00:45:34;13.57;;;9.90;;
31126;SDS011;17775;57.948;12.514;2023-06-19T00:48:00;14.80;;;10.32;;
31126;SDS011;17775;57.948;12.514;2023-06-19T00:50:27;15.07;;;11.20;;
31126;SDS011;17775;57.948;12.514;2023-06-19T00:52:55;15.90;;;10.77;;
31126;SDS011;17775;57.948;12.514;2023-06-19T00:55:21;17.63;;;10.48;;
31126;SDS011;17775;57.948;12.514;2023-06-19T00:57:48;13.18;;;9.73;;
31126;SDS011;17775;57.948;12.514;2023-06-19T01:00:15;14.90;;;10.40;;
31126;SDS011;17775;57.948;12.514;2023-06-19T01:02:42;16.85;;;11.52;;
31126;SDS011;17775;57.948;12.514;2023-06-19T01:05:08;14.95;;;10.82;;
31126;SDS011;17775;57.948;12.514;2023-06-19T01:07:45;13.98;;;10.15;;
31126;SDS011;17775;57.948;12.514;2023-06-19T01:10:15;14.27;;;10.35;;
31126;SDS011;17775;57.948;12.514;2023-06-19T01:12:44;14.48;;;10.80;;
31126;SDS011;17775;57.948;12.514;2023-06-19T01:15:16;16.05;;;10.55;;
31126;SDS011;17775;57.948;12.514;2023-06-19T01:17:43;16.77;;;11.85;;
31126;SDS011;17775;57.948;12.514;2023-06-19T01:20:11;16.23;;;11.43;;
31126;SDS011;17775;57.948;12.514;2023-06-19T01:22:38;19.90;;;11.48;;
31126;SDS011;17775;57.948;12.514;2023-06-19T01:25:05;18.92;;;11.68;;
31126;SDS011;17775;57.948;12.514;2023-06-19T01:27:32;16.13;;;11.20;;
31126;SDS011;17775;57.948;12.514;2023-06-19T01:29:58;16.70;;;11.48;;
31126;SDS011;17775;57.948;12.514;2023-06-19T01:32:29;16.63;;;11.88;;
31126;SDS011;17775;57.948;12.514;2023-06-19T01:34:57;21.02;;;12.23;;
31126;SDS011;17775;57.948;12.514;2023-06-19T01:37:24;17.08;;;11.98;;
31126;SDS011;17775;57.948;12.514;2023-06-19T01:39:54;21.75;;;13.40;;
31126;SDS011;17775;57.948;12.514;2023-06-19T01:42:22;21.00;;;13.77;;
31126;SDS011;17775;57.948;12.514;2023-06-19T01:44:49;21.90;;;14.15;;
31126;SDS011;17775;57.948;12.514;2023-06-19T01:47:15;23.80;;;15.45;;
31126;SDS011;17775;57.948;12.514;2023-06-19T01:49:46;23.42;;;14.23;;
31126;SDS011;17775;57.948;12.514;2023-06-19T01:52:13;18.73;;;11.98;;
31126;SDS011;17775;57.948;12.514;2023-06-19T01:54:39;19.45;;;12.48;;
31126;SDS011;17775;57.948;12.514;2023-06-19T01:57:06;19.50;;;12.88;;
31126;SDS011;17775;57.948;12.514;2023-06-19T01:59:33;16.58;;;11.85;;
31126;SDS011;17775;57.948;12.514;2023-06-19T02:01:59;16.13;;;12.15;;
31126;SDS011;17775;57.948;12.514;2023-06-19T02:04:25;17.73;;;12.07;;
31126;SDS011;17775;57.948;12.514;2023-06-19T02:06:52;18.73;;;11.77;;
31126;SDS011;17775;57.948;12.514;2023-06-19T02:09:18;16.08;;;10.48;;
31126;SDS011;17775;57.948;12.514;2023-06-19T02:11:45;19.05;;;12.13;;
31126;SDS011;17775;57.948;12.514;2023-06-19T02:14:11;17.17;;;12.57;;
31126;SDS011;17775;57.948;12.514;2023-06-19T02:16:38;18.15;;;12.15;;
31126;SDS011;17775;57.948;12.514;2023-06-19T02:19:04;19.00;;;13.45;;
31126;SDS011;17775;57.948;12.514;2023-06-19T02:21:31;17.90;;;12.85;;
31126;SDS011;17775;57.948;12.514;2023-06-19T02:23:57;17.05;;;12.77;;
31126;SDS011;17775;57.948;12.514;2023-06-19T02:26:24;17.90;;;12.77;;
31126;SDS011;17775;57.948;12.514;2023-06-19T02:28:53;17.90;;;12.55;;
31126;SDS011;17775;57.948;12.514;2023-06-19T02:31:21;20.65;;;13.27;;
31126;SDS011;17775;57.948;12.514;2023-06-19T02:33:47;21.90;;;14.10;;
31126;SDS011;17775;57.948;12.514;2023-06-19T02:36:14;19.25;;;13.40;;
31126;SDS011;17775;57.948;12.514;2023-06-19T02:38:46;23.88;;;14.15;;
31126;SDS011;17775;57.948;12.514;2023-06-19T02:41:13;18.45;;;12.98;;
31126;SDS011;17775;57.948;12.514;2023-06-19T02:43:40;21.58;;;14.93;;
31126;SDS011;17775;57.948;12.514;2023-06-19T02:46:07;21.80;;;14.82;;
31126;SDS011;17775;57.948;12.514;2023-06-19T02:48:35;21.27;;;14.07;;
31126;SDS011;17775;57.948;12.514;2023-06-19T02:51:02;25.05;;;15.20;;
31126;SDS011;17775;57.948;12.514;2023-06-19T02:53:28;26.45;;;14.80;;
31126;SDS011;17775;57.948;12.514;2023-06-19T02:55:55;24.30;;;15.07;;
31126;SDS011;17775;57.948;12.514;2023-06-19T02:58:22;26.30;;;16.50;;
31126;SDS011;17775;57.948;12.514;2023-06-19T03:00:49;24.25;;;15.23;;
31126;SDS011;17775;57.948;12.514;2023-06-19T03:03:19;24.45;;;15.32;;
31126;SDS011;17775;57.948;12.514;2023-06-19T03:05:45;24.17;;;16.20;;
31126;SDS011;17775;57.948;12.514;2023-06-19T03:08:12;28.08;;;16.05;;
31126;SDS011;17775;57.948;12.514;2023-06-19T03:10:39;23.15;;;15.68;;
31126;SDS011;17775;57.948;12.514;2023-06-19T03:13:05;23.65;;;14.68;;
31126;SDS011;17775;57.948;12.514;2023-06-19T03:15:32;22.33;;;14.38;;
31126;SDS011;17775;57.948;12.514;2023-06-19T03:17:58;19.80;;;12.77;;
31126;SDS011;17775;57.948;12.514;2023-06-19T03:20:25;19.83;;;13.10;;
31126;SDS011;17775;57.948;12.514;2023-06-19T03:22:53;18.83;;;13.23;;
31126;SDS011;17775;57.948;12.514;2023-06-19T03:25:20;19.08;;;13.43;;
31126;SDS011;17775;57.948;12.514;2023-06-19T03:27:46;20.70;;;14.05;;
31126;SDS011;17775;57.948;12.514;2023-06-19T03:30:13;18.50;;;13.60;;
31126;SDS011;17775;57.948;12.514;2023-06-19T03:32:42;19.98;;;13.63;;
31126;SDS011;17775;57.948;12.514;2023-06-19T03:35:08;19.20;;;13.93;;
31126;SDS011;17775;57.948;12.514;2023-06-19T03:37:36;18.88;;;12.80;;
31126;SDS011;17775;57.948;12.514;2023-06-19T03:40:03;19.92;;;12.75;;
31126;SDS011;17775;57.948;12.514;2023-06-19T03:42:29;19.70;;;14.00;;
31126;SDS011;17775;57.948;12.514;2023-06-19T03:44:56;21.50;;;13.80;;
31126;SDS011;17775;57.948;12.514;2023-06-19T03:47:22;19.15;;;13.52;;
31126;SDS011;17775;57.948;12.514;2023-06-19T03:49:50;16.73;;;12.65;;
31126;SDS011;17775;57.948;12.514;2023-06-19T03:52:17;18.63;;;12.63;;
31126;SDS011;17775;57.948;12.514;2023-06-19T03:54:43;21.50;;;13.05;;
31126;SDS011;17775;57.948;12.514;2023-06-19T03:57:09;18.42;;;12.88;;
31126;SDS011;17775;57.948;12.514;2023-06-19T03:59:36;21.27;;;14.00;;
31126;SDS011;17775;57.948;12.514;2023-06-19T04:02:02;18.50;;;13.02;;
31126;SDS011;17775;57.948;12.514;2023-06-19T04:04:29;21.38;;;14.00;;
31126;SDS011;17775;57.948;12.514;2023-06-19T04:06:56;21.92;;;14.40;;
31126;SDS011;17775;57.948;12.514;2023-06-19T04:09:22;21.85;;;14.68;;
31126;SDS011;17775;57.948;12.514;2023-06-19T04:11:49;25.25;;;16.00;;
31126;SDS011;17775;57.948;12.514;2023-06-19T04:14:15;30.95;;;15.45;;
31126;SDS011;17775;57.948;12.514;2023-06-19T04:16:42;27.50;;;15.77;;
31126;SDS011;17775;57.948;12.514;2023-06-19T04:19:08;21.92;;;13.65;;
31126;SDS011;17775;57.948;12.514;2023-06-19T04:21:35;27.90;;;16.70;;
31126;SDS011;17775;57.948;12.514;2023-06-19T04:24:01;24.02;;;15.50;;
31126;SDS011;17775;57.948;12.514;2023-06-19T04:26:31;26.15;;;15.70;;
31126;SDS011;17775;57.948;12.514;2023-06-19T04:28:57;24.63;;;15.25;;
31126;SDS011;17775;57.948;12.514;2023-06-19T04:31:24;24.17;;;14.57;;
31126;SDS011;17775;57.948;12.514;2023-06-19T04:33:52;28.48;;;16.10;;
31126;SDS011;17775;57.948;12.514;2023-06-19T04:36:22;26.17;;;15.70;;
31126;SDS011;17775;57.948;12.514;2023-06-19T04:38:51;29.75;;;16.38;;
31126;SDS011;17775;57.948;12.514;2023-06-19T04:41:18;26.23;;;15.13;;
31126;SDS011;17775;57.948;12.514;2023-06-19T04:43:45;22.60;;;15.15;;
31126;SDS011;17775;57.948;12.514;2023-06-19T04:46:12;26.77;;;15.45;;
31126;SDS011;17775;57.948;12.514;2023-06-19T04:48:38;26.95;;;15.43;;
31126;SDS011;17775;57.948;12.514;2023-06-19T04:51:05;26.67;;;16.83;;
31126;SDS011;17775;57.948;12.514;2023-06-19T04:53:32;28.73;;;17.38;;
31126;SDS011;17775;57.948;12.514;2023-06-19T04:55:58;23.95;;;16.45;;
31126;SDS011;17775;57.948;12.514;2023-06-19T04:58:28;26.48;;;17.35;;
31126;SDS011;17775;57.948;12.514;2023-06-19T05:00:54;28.75;;;17.20;;
31126;SDS011;17775;57.948;12.514;2023-06-19T05:03:21;25.83;;;16.15;;
31126;SDS011;17775;57.948;12.514;2023-06-19T05:05:48;26.90;;;18.10;;
31126;SDS011;17775;57.948;12.514;2023-06-19T05:08:15;23.50;;;15.52;;
31126;SDS011;17775;57.948;12.514;2023-06-19T05:10:41;27.70;;;17.70;;
31126;SDS011;17775;57.948;12.514;2023-06-19T05:13:13;23.60;;;16.38;;
31126;SDS011;17775;57.948;12.514;2023-06-19T05:15:39;21.00;;;15.27;;
31126;SDS011;17775;57.948;12.514;2023-06-19T05:18:06;22.23;;;15.77;;
31126;SDS011;17775;57.948;12.514;2023-06-19T05:20:33;20.05;;;14.93;;
31126;SDS011;17775;57.948;12.514;2023-06-19T05:22:59;24.48;;;16.20;;
31126;SDS011;17775;57.948;12.514;2023-06-19T05:25:26;22.27;;;16.35;;
31126;SDS011;17775;57.948;12.514;2023-06-19T05:27:53;21.58;;;14.88;;
31126;SDS011;17775;57.948;12.514;2023-06-19T05:30:20;22.00;;;16.50;;
31126;SDS011;17775;57.948;12.514;2023-06-19T05:32:46;23.35;;;16.38;;
31126;SDS011;17775;57.948;12.514;2023-06-19T05:35:13;23.52;;;15.43;;
31126;SDS011;17775;57.948;12.514;2023-06-19T05:37:42;23.25;;;15.93;;
31126;SDS011;17775;57.948;12.514;2023-06-19T05:40:10;21.05;;;15.60;;
31126;SDS011;17775;57.948;12.514;2023-06-19T05:42:36;24.55;;;17.42;;
31126;SDS011;17775;57.948;12.514;2023-06-19T05:45:03;21.45;;;15.95;;
31126;SDS011;17775;57.948;12.514;2023-06-19T05:47:30;19.38;;;14.38;;
31126;SDS011;17775;57.948;12.514;2023-06-19T05:49:57;21.02;;;15.95;;
31126;SDS011;17775;57.948;12.514;2023-06-19T05:52:23;19.35;;;14.18;;
31126;SDS011;17775;57.948;12.514;2023-06-19T05:54:50;19.95;;;15.15;;
31126;SDS011;17775;57.948;12.514;2023-06-19T05:57:17;22.45;;;15.02;;
31126;SDS011;17775;57.948;12.514;2023-06-19T05:59:47;19.30;;;15.00;;
31126;SDS011;17775;57.948;12.514;2023-06-19T06:02:14;17.50;;;13.95;;
31126;SDS011;17775;57.948;12.514;2023-06-19T06:04:41;19.27;;;13.95;;
31126;SDS011;17775;57.948;12.514;2023-06-19T06:07:09;18.33;;;14.68;;
31126;SDS011;17775;57.948;12.514;2023-06-19T06:09:35;20.35;;;15.68;;
31126;SDS011;17775;57.948;12.514;2023-06-19T06:12:02;18.83;;;14.10;;
31126;SDS011;17775;57.948;12.514;2023-06-19T06:14:28;20.73;;;15.07;;
31126;SDS011;17775;57.948;12.514;2023-06-19T06:16:55;17.05;;;13.73;;
31126;SDS011;17775;57.948;12.514;2023-06-19T06:19:21;18.85;;;14.85;;
31126;SDS011;17775;57.948;12.514;2023-06-19T06:21:50;21.13;;;14.60;;
31126;SDS011;17775;57.948;12.514;2023-06-19T06:24:17;18.10;;;14.40;;
31126;SDS011;17775;57.948;12.514;2023-06-19T06:26:46;18.20;;;14.65;;
31126;SDS011;17775;57.948;12.514;2023-06-19T06:29:13;17.35;;;14.40;;
31126;SDS011;17775;57.948;12.514;2023-06-19T06:31:39;18.42;;;14.13;;
31126;SDS011;17775;57.948;12.514;2023-06-19T06:34:07;18.55;;;14.02;;
31126;SDS011;17775;57.948;12.514;2023-06-19T06:36:34;16.35;;;14.10;;
31126;SDS011;17775;57.948;12.514;2023-06-19T06:39:05;16.40;;;13.05;;
31126;SDS011;17775;57.948;12.514;2023-06-19T06:41:32;17.38;;;14.77;;
31126;SDS011;17775;57.948;12.514;2023-06-19T06:43:59;18.38;;;13.77;;
31126;SDS011;17775;57.948;12.514;2023-06-19T06:46:25;18.50;;;14.13;;
31126;SDS011;17775;57.948;12.514;2023-06-19T06:48:52;15.65;;;13.65;;
31126;SDS011;17775;57.948;12.514;2023-06-19T06:51:19;15.82;;;13.15;;
31126;SDS011;17775;57.948;12.514;2023-06-19T06:53:45;19.05;;;13.73;;
31126;SDS011;17775;57.948;12.514;2023-06-19T06:56:12;19.85;;;15.05;;
31126;SDS011;17775;57.948;12.514;2023-06-19T06:58:39;15.80;;;13.25;;
31126;SDS011;17775;57.948;12.514;2023-06-19T07:01:08;15.82;;;13.48;;
31126;SDS011;17775;57.948;12.514;2023-06-19T07:03:35;16.58;;;13.55;;
31126;SDS011;17775;57.948;12.514;2023-06-19T07:06:01;17.05;;;14.57;;
31126;SDS011;17775;57.948;12.514;2023-06-19T07:08:29;17.63;;;14.35;;
31126;SDS011;17775;57.948;12.514;2023-06-19T07:10:55;15.98;;;13.40;;
31126;SDS011;17775;57.948;12.514;2023-06-19T07:13:22;16.40;;;13.02;;
31126;SDS011;17775;57.948;12.514;2023-06-19T07:15:48;16.77;;;13.20;;
31126;SDS011;17775;57.948;12.514;2023-06-19T07:18:14;16.10;;;13.13;;
31126;SDS011;17775;57.948;12.514;2023-06-19T07:20:41;15.85;;;13.23;;
31126;SDS011;17775;57.948;12.514;2023-06-19T07:23:08;14.77;;;12.50;;
31126;SDS011;17775;57.948;12.514;2023-06-19T07:25:35;14.10;;;12.45;;
31126;SDS011;17775;57.948;12.514;2023-06-19T07:28:02;14.27;;;12.77;;
31126;SDS011;17775;57.948;12.514;2023-06-19T07:30:30;14.60;;;12.65;;
31126;SDS011;17775;57.948;12.514;2023-06-19T07:32:57;13.10;;;11.57;;
31126;SDS011;17775;57.948;12.514;2023-06-19T07:35:23;14.35;;;12.85;;
31126;SDS011;17775;57.948;12.514;2023-06-19T07:37:50;15.13;;;11.90;;
31126;SDS011;17775;57.948;12.514;2023-06-19T07:40:16;14.52;;;12.35;;
31126;SDS011;17775;57.948;12.514;2023-06-19T07:42:43;12.85;;;11.45;;
31126;SDS011;17775;57.948;12.514;2023-06-19T07:45:10;15.07;;;12.18;;
31126;SDS011;17775;57.948;12.514;2023-06-19T07:47:37;14.70;;;12.48;;
31126;SDS011;17775;57.948;12.514;2023-06-19T07:50:03;14.13;;;11.48;;
31126;SDS011;17775;57.948;12.514;2023-06-19T07:52:30;13.30;;;11.73;;
31126;SDS011;17775;57.948;12.514;2023-06-19T07:54:58;15.48;;;12.00;;
31126;SDS011;17775;57.948;12.514;2023-06-19T07:57:25;13.85;;;11.95;;
31126;SDS011;17775;57.948;12.514;2023-06-19T07:59:54;13.38;;;11.73;;
31126;SDS011;17775;57.948;12.514;2023-06-19T08:02:21;12.82;;;11.52;;
31126;SDS011;17775;57.948;12.514;2023-06-19T08:04:48;13.52;;;11.45;;
31126;SDS011;17775;57.948;12.514;2023-06-19T08:07:14;13.68;;;12.18;;
31126;SDS011;17775;57.948;12.514;2023-06-19T08:09:41;12.48;;;11.18;;
31126;SDS011;17775;57.948;12.514;2023-06-19T08:12:07;12.93;;;11.63;;
31126;SDS011;17775;57.948;12.514;2023-06-19T08:14:34;13.07;;;11.68;;
31126;SDS011;17775;57.948;12.514;2023-06-19T08:17:00;13.90;;;11.68;;
31126;SDS011;17775;57.948;12.514;2023-06-19T08:19:29;13.35;;;11.35;;
31126;SDS011;17775;57.948;12.514;2023-06-19T08:21:55;15.43;;;11.35;;
31126;SDS011;17775;57.948;12.514;2023-06-19T08:24:22;15.95;;;11.75;;
31126;SDS011;17775;57.948;12.514;2023-06-19T08:26:48;14.85;;;12.23;;
31126;SDS011;17775;57.948;12.514;2023-06-19T08:29:17;14.73;;;12.15;;
31126;SDS011;17775;57.948;12.514;2023-06-19T08:31:44;13.90;;;12.35;;
31126;SDS011;17775;57.948;12.514;2023-06-19T08:34:11;16.30;;;12.68;;
31126;SDS011;17775;57.948;12.514;2023-06-19T08:36:37;15.98;;;13.00;;
31126;SDS011;17775;57.948;12.514;2023-06-19T08:39:03;15.98;;;13.38;;
31126;SDS011;17775;57.948;12.514;2023-06-19T08:41:30;17.27;;;14.73;;
31126;SDS011;17775;57.948;12.514;2023-06-19T08:43:56;18.90;;;15.20;;
31126;SDS011;17775;57.948;12.514;2023-06-19T08:46:24;16.73;;;14.32;;
31126;SDS011;17775;57.948;12.514;2023-06-19T08:48:50;16.73;;;14.25;;
31126;SDS011;17775;57.948;12.514;2023-06-19T08:51:17;17.98;;;15.85;;
31126;SDS011;17775;57.948;12.514;2023-06-19T08:53:45;22.20;;;16.95;;
31126;SDS011;17775;57.948;12.514;2023-06-19T08:56:11;23.75;;;17.48;;
31126;SDS011;17775;57.948;12.514;2023-06-19T08:58:38;22.55;;;18.15;;
31126;SDS011;17775;57.948;12.514;2023-06-19T09:01:04;21.58;;;17.08;;
31126;SDS011;17775;57.948;12.514;2023-06-19T09:03:31;21.08;;;16.95;;
31126;SDS011;17775;57.948;12.514;2023-06-19T09:06:02;21.73;;;17.45;;
31126;SDS011;17775;57.948;12.514;2023-06-19T09:08:29;20.42;;;16.45;;
31126;SDS011;17775;57.948;12.514;2023-06-19T09:10:59;19.00;;;16.00;;
31126;SDS011;17775;57.948;12.514;2023-06-19T09:13:26;17.48;;;15.52;;
31126;SDS011;17775;57.948;12.514;2023-06-19T09:15:58;18.52;;;13.80;;
31126;SDS011;17775;57.948;12.514;2023-06-19T09:18:26;17.55;;;13.48;;
31126;SDS011;17775;57.948;12.514;2023-06-19T09:20:53;17.30;;;14.75;;
31126;SDS011;17775;57.948;12.514;2023-06-19T09:23:20;18.25;;;14.48;;
31126;SDS011;17775;57.948;12.514;2023-06-19T09:25:47;17.55;;;14.20;;
31126;SDS011;17775;57.948;12.514;2023-06-19T09:28:23;20.60;;;16.10;;
31126;SDS011;17775;57.948;12.514;2023-06-19T09:30:57;17.77;;;15.05;;
31126;SDS011;17775;57.948;12.514;2023-06-19T09:33:28;19.02;;;16.08;;
31126;SDS011;17775;57.948;12.514;2023-06-19T09:35:55;20.23;;;15.43;;
31126;SDS011;17775;57.948;12.514;2023-06-19T09:38:26;17.05;;;15.20;;
31126;SDS011;17775;57.948;12.514;2023-06-19T09:40:53;19.42;;;15.18;;
31126;SDS011;17775;57.948;12.514;2023-06-19T09:43:24;18.55;;;14.98;;
31126;SDS011;17775;57.948;12.514;2023-06-19T09:45:53;19.17;;;14.13;;
31126;SDS011;17775;57.948;12.514;2023-06-19T09:48:29;18.60;;;15.00;;
31126;SDS011;17775;57.948;12.514;2023-06-19T09:53:41;17.30;;;14.48;;
31126;SDS011;17775;57.948;12.514;2023-06-19T09:56:09;16.88;;;14.27;;
31126;SDS011;17775;57.948;12.514;2023-06-19T09:58:36;16.35;;;14.55;;
31126;SDS011;17775;57.948;12.514;2023-06-19T10:01:04;16.17;;;14.40;;
31126;SDS011;17775;57.948;12.514;2023-06-19T10:03:31;14.70;;;13.02;;
31126;SDS011;17775;57.948;12.514;2023-06-19T10:06:01;17.30;;;14.40;;
31126;SDS011;17775;57.948;12.514;2023-06-19T10:08:32;16.30;;;14.52;;
31126;SDS011;17775;57.948;12.514;2023-06-19T10:10:58;16.05;;;13.93;;
31126;SDS011;17775;57.948;12.514;2023-06-19T10:13:32;15.82;;;13.95;;
31126;SDS011;17775;57.948;12.514;2023-06-19T10:16:02;17.00;;;14.48;;
31126;SDS011;17775;57.948;12.514;2023-06-19T10:18:28;15.50;;;13.82;;
31126;SDS011;17775;57.948;12.514;2023-06-19T10:20:55;18.00;;;14.98;;
31126;SDS011;17775;57.948;12.514;2023-06-19T10:23:23;15.45;;;12.77;;
31126;SDS011;17775;57.948;12.514;2023-06-19T10:30:43;16.30;;;13.02;;
31126;SDS011;17775;57.948;12.514;2023-06-19T10:33:10;13.57;;;11.85;;
31126;SDS011;17775;57.948;12.514;2023-06-19T10:35:39;12.00;;;10.20;;
31126;SDS011;17775;57.948;12.514;2023-06-19T10:38:06;11.60;;;9.80;;
31126;SDS011;17775;57.948;12.514;2023-06-19T10:40:33;11.20;;;10.00;;
31126;SDS011;17775;57.948;12.514;2023-06-19T10:42:59;10.77;;;9.32;;
31126;SDS011;17775;57.948;12.514;2023-06-19T10:45:26;12.40;;;11.00;;
31126;SDS011;17775;57.948;12.514;2023-06-19T10:47:55;11.88;;;10.38;;
31126;SDS011;17775;57.948;12.514;2023-06-19T10:50:25;10.82;;;9.73;;
31126;SDS011;17775;57.948;12.514;2023-06-19T10:52:52;14.10;;;10.10;;
31126;SDS011;17775;57.948;12.514;2023-06-19T10:55:21;13.35;;;11.02;;
31126;SDS011;17775;57.948;12.514;2023-06-19T10:57:48;13.05;;;10.63;;
31126;SDS011;17775;57.948;12.514;2023-06-19T11:00:29;13.10;;;9.48;;
31126;SDS011;17775;57.948;12.514;2023-06-19T11:02:56;10.43;;;9.43;;
31126;SDS011;17775;57.948;12.514;2023-06-19T11:05:24;11.52;;;9.65;;
31126;SDS011;17775;57.948;12.514;2023-06-19T11:07:57;11.40;;;9.20;;
31126;SDS011;17775;57.948;12.514;2023-06-19T11:10:25;11.40;;;10.30;;
31126;SDS011;17775;57.948;12.514;2023-06-19T11:12:57;11.23;;;10.02;;
31126;SDS011;17775;57.948;12.514;2023-06-19T11:15:33;11.60;;;10.20;;
31126;SDS011;17775;57.948;12.514;2023-06-19T11:18:01;12.10;;;10.63;;
31126;SDS011;17775;57.948;12.514;2023-06-19T11:20:42;11.38;;;10.18;;
31126;SDS011;17775;57.948;12.514;2023-06-19T11:23:08;10.77;;;9.65;;
31126;SDS011;17775;57.948;12.514;2023-06-19T11:25:38;10.40;;;9.30;;
31126;SDS011;17775;57.948;12.514;2023-06-19T11:28:10;10.53;;;9.20;;
31126;SDS011;17775;57.948;12.514;2023-06-19T11:30:37;10.32;;;9.18;;
31126;SDS011;17775;57.948;12.514;2023-06-19T11:33:03;11.30;;;9.00;;
31126;SDS011;17775;57.948;12.514;2023-06-19T11:35:33;11.00;;;9.40;;
31126;SDS011;17775;57.948;12.514;2023-06-19T11:38:03;10.70;;;9.60;;
31126;SDS011;17775;57.948;12.514;2023-06-19T11:40:38;10.63;;;9.52;;
31126;SDS011;17775;57.948;12.514;2023-06-19T11:43:04;10.73;;;9.20;;
31126;SDS011;17775;57.948;12.514;2023-06-19T11:45:31;10.93;;;9.73;;
31126;SDS011;17775;57.948;12.514;2023-06-19T11:47:57;12.07;;;10.77;;
31126;SDS011;17775;57.948;12.514;2023-06-19T11:50:27;12.23;;;9.75;;
31126;SDS011;17775;57.948;12.514;2023-06-19T11:52:54;11.52;;;10.13;;
31126;SDS011;17775;57.948;12.514;2023-06-19T11:55:21;12.57;;;10.45;;
31126;SDS011;17775;57.948;12.514;2023-06-19T11:57:47;10.98;;;9.82;;
31126;SDS011;17775;57.948;12.514;2023-06-19T12:00:14;10.60;;;9.52;;
31126;SDS011;17775;57.948;12.514;2023-06-19T12:02:41;12.27;;;10.57;;
31126;SDS011;17775;57.948;12.514;2023-06-19T12:05:08;10.88;;;9.32;;
31126;SDS011;17775;57.948;12.514;2023-06-19T12:07:35;10.98;;;9.77;;
31126;SDS011;17775;57.948;12.514;2023-06-19T12:10:02;10.18;;;9.18;;
31126;SDS011;17775;57.948;12.514;2023-06-19T12:12:30;10.27;;;9.25;;
31126;SDS011;17775;57.948;12.514;2023-06-19T12:14:57;10.20;;;9.20;;
31126;SDS011;17775;57.948;12.514;2023-06-19T12:17:23;9.70;;;8.73;;
31126;SDS011;17775;57.948;12.514;2023-06-19T12:19:50;9.52;;;8.52;;
31126;SDS011;17775;57.948;12.514;2023-06-19T12:22:16;10.77;;;9.70;;
31126;SDS011;17775;57.948;12.514;2023-06-19T12:24:43;10.05;;;9.05;;
31126;SDS011;17775;57.948;12.514;2023-06-19T12:27:09;10.02;;;9.02;;
31126;SDS011;17775;57.948;12.514;2023-06-19T12:29:36;10.77;;;9.45;;
31126;SDS011;17775;57.948;12.514;2023-06-19T12:32:02;9.85;;;8.85;;
31126;SDS011;17775;57.948;12.514;2023-06-19T12:34:29;9.73;;;8.73;;
31126;SDS011;17775;57.948;12.514;2023-06-19T12:36:57;9.80;;;8.85;;
31126;SDS011;17775;57.948;12.514;2023-06-19T12:39:24;9.55;;;8.65;;
31126;SDS011;17775;57.948;12.514;2023-06-19T12:41:51;10.20;;;9.20;;
31126;SDS011;17775;57.948;12.514;2023-06-19T12:44:18;9.60;;;8.65;;
31126;SDS011;17775;57.948;12.514;2023-06-19T12:46:44;9.57;;;8.55;;
31126;SDS011;17775;57.948;12.514;2023-06-19T12:49:19;10.13;;;9.13;;
31126;SDS011;17775;57.948;12.514;2023-06-19T12:52:06;10.27;;;9.20;;
31126;SDS011;17775;57.948;12.514;2023-06-19T12:54:32;10.20;;;8.38;;
31126;SDS011;17775;57.948;12.514;2023-06-19T12:56:59;10.00;;;9.10;;
31126;SDS011;17775;57.948;12.514;2023-06-19T12:59:26;8.68;;;7.78;;
31126;SDS011;17775;57.948;12.514;2023-06-19T13:01:53;9.73;;;8.73;;
31126;SDS011;17775;57.948;12.514;2023-06-19T13:04:19;9.85;;;8.65;;
31126;SDS011;17775;57.948;12.514;2023-06-19T13:06:46;9.30;;;8.50;;
31126;SDS011;17775;57.948;12.514;2023-06-19T13:09:13;9.07;;;8.23;;
31126;SDS011;17775;57.948;12.514;2023-06-19T13:11:39;8.55;;;7.78;;
31126;SDS011;17775;57.948;12.514;2023-06-19T13:14:06;8.60;;;7.80;;
31126;SDS011;17775;57.948;12.514;2023-06-19T13:16:33;9.07;;;8.23;;
31126;SDS011;17775;57.948;12.514;2023-06-19T13:19:13;10.73;;;7.90;;
31126;SDS011;17775;57.948;12.514;2023-06-19T13:21:40;9.60;;;8.70;;
31126;SDS011;17775;57.948;12.514;2023-06-19T13:24:06;9.05;;;8.18;;
31126;SDS011;17775;57.948;12.514;2023-06-19T13:26:36;9.23;;;8.32;;
31126;SDS011;17775;57.948;12.514;2023-06-19T13:29:03;9.40;;;8.15;;
31126;SDS011;17775;57.948;12.514;2023-06-19T13:31:29;9.05;;;8.25;;
31126;SDS011;17775;57.948;12.514;2023-06-19T13:33:56;8.38;;;7.53;;
31126;SDS011;17775;57.948;12.514;2023-06-19T13:36:23;9.27;;;8.40;;
31126;SDS011;17775;57.948;12.514;2023-06-19T13:38:52;9.20;;;8.30;;
31126;SDS011;17775;57.948;12.514;2023-06-19T13:41:19;9.15;;;7.63;;
31126;SDS011;17775;57.948;12.514;2023-06-19T13:43:49;9.57;;;8.68;;
31126;SDS011;17775;57.948;12.514;2023-06-19T13:46:16;10.00;;;9.00;;
31126;SDS011;17775;57.948;12.514;2023-06-19T13:48:43;10.48;;;8.85;;
31126;SDS011;17775;57.948;12.514;2023-06-19T13:51:10;25.88;;;9.48;;
31126;SDS011;17775;57.948;12.514;2023-06-19T13:53:37;17.23;;;7.32;;
31126;SDS011;17775;57.948;12.514;2023-06-19T13:56:03;16.88;;;8.02;;
31126;SDS011;17775;57.948;12.514;2023-06-19T13:58:29;12.80;;;7.00;;
31126;SDS011;17775;57.948;12.514;2023-06-19T14:00:59;10.48;;;7.82;;
31126;SDS011;17775;57.948;12.514;2023-06-19T14:03:26;10.32;;;7.75;;
31126;SDS011;17775;57.948;12.514;2023-06-19T14:05:52;12.80;;;8.40;;
31126;SDS011;17775;57.948;12.514;2023-06-19T14:08:19;10.40;;;8.60;;
31126;SDS011;17775;57.948;12.514;2023-06-19T14:10:45;10.00;;;8.20;;
31126;SDS011;17775;57.948;12.514;2023-06-19T14:13:12;11.55;;;7.82;;
31126;SDS011;17775;57.948;12.514;2023-06-19T14:15:40;10.23;;;8.88;;
31126;SDS011;17775;57.948;12.514;2023-06-19T14:18:07;9.00;;;7.72;;
31126;SDS011;17775;57.948;12.514;2023-06-19T14:20:36;12.15;;;8.70;;
31126;SDS011;17775;57.948;12.514;2023-06-19T14:23:02;10.52;;;7.65;;